Time;durP1;ratioP1;P1;durP2;ratioP2;P2;SDS_P1;SDS_P2;PMS_P1;PMS_P2;Temp;Humidity;BMP_temperature;BMP_pressure;BME280_temperature;BME280_humidity;BME280_pressure;Samples;Min_cycle;Max_cycle;Signal;HPM_P1;HPM_P2
2022/07/07 00:00:23;;;;;;;3.80;2.07;;;17.10;1.00;;;;;;5086691;28;20657;-74
2022/07/07 00:02:49;;;;;;;10.70;2.40;;;17.10;1.00;;;;;;5078206;28;20263;-74
2022/07/07 00:05:15;;;;;;;8.10;2.10;;;17.00;1.00;;;;;;5086710;28;21002;-74
2022/07/07 00:07:40;;;;;;;5.63;1.70;;;17.00;1.00;;;;;;5079226;28;20416;-74
2022/07/07 00:10:17;;;;;;;6.27;2.17;;;17.00;1.00;;;;;;5072796;28;20415;-74
2022/07/07 00:12:43;;;;;;;15.10;2.50;;;17.00;1.00;;;;;;5073362;28;20201;-74
2022/07/07 00:15:09;;;;;;;4.87;2.00;;;17.00;1.00;;;;;;5076332;28;20397;-74
2022/07/07 00:17:35;;;;;;;4.20;2.33;;;17.00;1.00;;;;;;5076487;28;20180;-74
2022/07/07 00:20:01;;;;;;;5.33;2.10;;;17.00;1.00;;;;;;5071830;28;20419;-74
2022/07/07 00:22:35;;;;;;;5.27;2.10;;;17.00;1.00;;;;;;5076220;28;20707;-74
2022/07/07 00:25:01;;;;;;;2.20;1.60;;;17.00;1.00;;;;;;5083575;28;20167;-74
2022/07/07 00:27:26;;;;;;;1.57;1.47;;;17.00;1.00;;;;;;5084198;28;20933;-74
2022/07/07 00:29:52;;;;;;;3.37;1.83;;;17.00;1.00;;;;;;5090080;28;20202;-73
2022/07/07 00:32:18;;;;;;;5.30;2.10;;;16.90;1.00;;;;;;5076405;28;20226;-74
2022/07/07 00:34:44;;;;;;;2.93;2.00;;;16.90;1.00;;;;;;5088886;28;20173;-74
2022/07/07 00:37:11;;;;;;;2.63;1.73;;;16.90;1.00;;;;;;5076579;28;20459;-74
2022/07/07 00:39:37;;;;;;;5.27;2.10;;;16.90;1.00;;;;;;5080728;28;20188;-74
2022/07/07 00:42:15;;;;;;;3.30;2.10;;;16.90;1.00;;;;;;5076848;28;20467;-78
2022/07/07 00:44:59;;;;;;;8.73;2.03;;;16.90;1.00;;;;;;5075519;28;20256;-78
2022/07/07 00:54:10;;;;;;;2.37;2.17;;;16.80;1.00;;;;;;5071325;28;20414;-78
2022/07/07 00:56:37;;;;;;;2.50;2.20;;;16.80;1.00;;;;;;5072885;28;20470;-75
2022/07/07 00:59:06;;;;;;;2.23;2.00;;;16.80;1.00;;;;;;5081119;28;20426;-74
2022/07/07 01:01:40;;;;;;;3.47;2.03;;;16.80;1.00;;;;;;5088686;28;20392;-74
2022/07/07 01:04:13;;;;;;;8.33;1.80;;;16.80;1.00;;;;;;5075678;28;20921;-74
2022/07/07 01:06:47;;;;;;;4.93;1.80;;;16.90;1.00;;;;;;5081608;28;20902;-74
2022/07/07 01:09:18;;;;;;;2.33;1.97;;;16.80;1.00;;;;;;5084143;28;20421;-74
2022/07/07 01:11:54;;;;;;;3.07;2.10;;;16.80;1.00;;;;;;5078401;28;20483;-74
2022/07/07 01:14:21;;;;;;;2.87;2.17;;;16.80;1.00;;;;;;5075441;28;20460;-74
2022/07/07 01:16:48;;;;;;;5.27;2.50;;;16.90;1.00;;;;;;5072827;28;20455;-74
2022/07/07 01:19:14;;;;;;;5.70;2.70;;;16.90;1.00;;;;;;5087480;28;20463;-74
2022/07/07 01:21:54;;;;;;;2.90;2.20;;;16.70;1.00;;;;;;5072120;28;20511;-74
2022/07/07 01:24:22;;;;;;;3.40;2.07;;;16.70;1.00;;;;;;5068265;28;20449;-74
2022/07/07 01:27:17;;;;;;;2.60;2.10;;;16.80;1.00;;;;;;5074557;28;20441;-78
2022/07/07 01:30:29;;;;;;;4.77;2.07;;;16.80;1.00;;;;;;5067258;28;20484;-78
2022/07/07 01:36:16;;;;;;;5.20;2.60;;;16.80;1.00;;;;;;5070106;28;20520;-78
2022/07/07 01:39:17;;;;;;;4.00;2.10;;;16.80;1.00;;;;;;5067095;28;20541;-78
2022/07/07 01:41:45;;;;;;;7.90;2.40;;;16.80;1.00;;;;;;5065543;28;20215;-74
2022/07/07 01:44:11;;;;;;;2.97;2.20;;;16.80;1.00;;;;;;5081074;28;20418;-74
2022/07/07 01:46:36;;;;;;;2.70;2.50;;;16.90;1.00;;;;;;5077261;28;20401;-74
2022/07/07 01:49:02;;;;;;;4.77;2.40;;;16.80;1.00;;;;;;5079001;28;20749;-74
2022/07/07 01:51:28;;;;;;;2.90;2.43;;;16.80;1.00;;;;;;5080434;28;20579;-74
2022/07/07 01:53:59;;;;;;;4.90;2.70;;;16.80;1.00;;;;;;5078858;28;20176;-74
2022/07/07 01:56:25;;;;;;;7.40;2.90;;;16.80;1.00;;;;;;5083626;28;20200;-74
2022/07/07 01:58:53;;;;;;;8.80;2.80;;;16.90;1.00;;;;;;5075131;28;20976;-74
2022/07/07 02:01:19;;;;;;;5.17;2.37;;;16.90;1.00;;;;;;5083361;28;20208;-74
2022/07/07 02:03:47;;;;;;;9.57;3.20;;;16.90;1.00;;;;;;5076554;28;21253;-74
2022/07/07 02:06:13;;;;;;;9.40;3.13;;;16.90;1.00;;;;;;5086542;28;20180;-74
2022/07/07 02:08:38;;;;;;;8.73;2.83;;;16.90;1.00;;;;;;5080787;28;20424;-74
2022/07/07 02:11:14;;;;;;;5.40;2.90;;;16.90;1.00;;;;;;5071376;28;20262;-74
2022/07/07 02:13:41;;;;;;;3.77;2.40;;;17.00;1.00;;;;;;5073017;28;20215;-74
2022/07/07 02:16:15;;;;;;;7.10;2.40;;;17.00;1.00;;;;;;5080158;28;20453;-74
2022/07/07 02:18:42;;;;;;;10.40;2.47;;;17.00;1.00;;;;;;5067316;28;20456;-74
2022/07/07 02:21:10;;;;;;;9.70;2.63;;;17.00;1.00;;;;;;5083226;28;20398;-74
2022/07/07 02:23:44;;;;;;;2.80;2.57;;;17.00;1.00;;;;;;5077697;28;20382;-74
2022/07/07 02:26:10;;;;;;;3.33;2.50;;;17.00;1.00;;;;;;5071125;28;20897;-74
2022/07/07 02:28:36;;;;;;;3.00;2.50;;;17.00;1.00;;;;;;5074727;28;20468;-74
2022/07/07 02:31:02;;;;;;;3.10;2.23;;;16.90;1.00;;;;;;5072111;28;20398;-74
2022/07/07 02:33:28;;;;;;;5.80;2.80;;;17.00;1.00;;;;;;5056088;28;20444;-74
2022/07/07 02:35:54;;;;;;;2.93;2.60;;;17.00;1.00;;;;;;5064632;28;20199;-74
2022/07/07 02:38:22;;;;;;;3.00;2.60;;;17.00;1.00;;;;;;5074174;28;20450;-74
2022/07/07 02:40:49;;;;;;;6.93;3.07;;;17.00;1.00;;;;;;5082921;28;20414;-74
2022/07/07 02:43:29;;;;;;;13.87;2.83;;;17.00;1.00;;;;;;5085999;28;20410;-78
2022/07/07 02:46:29;;;;;;;6.20;2.60;;;17.00;1.00;;;;;;5060585;28;20504;-79
2022/07/07 02:52:17;;;;;;;9.97;2.97;;;17.00;1.00;;;;;;5071088;28;20459;-79
2022/07/07 02:54:59;;;;;;;10.87;2.90;;;16.90;1.00;;;;;;5073943;28;20493;-78
2022/07/07 02:57:36;;;;;;;4.83;2.70;;;16.90;1.00;;;;;;5074350;28;20776;-78
2022/07/07 03:00:06;;;;;;;3.40;2.50;;;16.90;1.00;;;;;;5066768;28;20435;-74
2022/07/07 03:02:32;;;;;;;10.97;2.83;;;16.90;1.00;;;;;;5078959;28;20418;-74
2022/07/07 03:04:57;;;;;;;14.33;3.03;;;16.90;1.00;;;;;;5070899;28;20789;-74
2022/07/07 03:07:23;;;;;;;5.30;3.00;;;16.90;1.00;;;;;;5077953;28;20401;-74
2022/07/07 03:09:49;;;;;;;4.30;2.83;;;16.90;1.00;;;;;;5060380;28;20185;-74
2022/07/07 03:12:14;;;;;;;5.17;3.17;;;16.80;1.00;;;;;;5079899;28;20174;-74
2022/07/07 03:15:23;;;;;;;6.57;2.73;;;16.90;1.00;;;;;;5080100;28;20195;-79
2022/07/07 03:17:49;;;;;;;9.00;3.20;;;16.90;1.00;;;;;;5055552;28;20166;-78
2022/07/07 03:24:17;;;;;;;4.50;3.10;;;16.90;1.00;;;;;;5060934;28;20483;-79
2022/07/07 03:27:17;;;;;;;3.67;2.63;;;16.90;1.00;;;;;;5066285;28;20929;-78
2022/07/07 03:30:17;;;;;;;3.73;2.80;;;17.00;1.00;;;;;;5071086;28;20439;-79
2022/07/07 03:32:59;;;;;;;3.53;2.87;;;16.90;1.00;;;;;;5070440;28;20399;-79
2022/07/07 03:35:59;;;;;;;9.80;3.50;;;16.90;1.00;;;;;;5062158;28;20399;-78
2022/07/07 03:38:47;;;;;;;5.67;2.73;;;17.00;1.00;;;;;;5073218;28;20571;-78
2022/07/07 03:41:17;;;;;;;4.20;2.53;;;17.00;1.00;;;;;;5073436;28;20410;-79
2022/07/07 03:43:59;;;;;;;5.80;3.10;;;16.90;1.00;;;;;;5071702;28;20540;-78
2022/07/07 03:46:59;;;;;;;11.10;3.30;;;17.00;1.00;;;;;;5061687;28;20434;-79
2022/07/07 03:49:30;;;;;;;3.30;2.77;;;17.00;1.00;;;;;;5057260;28;20423;-79
2022/07/07 03:52:17;;;;;;;4.20;3.03;;;17.00;1.00;;;;;;5070439;28;20435;-78
2022/07/07 03:54:47;;;;;;;6.73;3.10;;;17.10;1.00;;;;;;5068135;28;20885;-79
2022/07/07 03:57:29;;;;;;;3.20;2.80;;;17.10;1.00;;;;;;5082706;28;20795;-78
2022/07/07 03:59:59;;;;;;;4.03;2.80;;;17.20;1.00;;;;;;5077378;28;20458;-79
2022/07/07 04:02:59;;;;;;;2.83;2.60;;;17.20;1.00;;;;;;5077240;28;20873;-79
2022/07/07 04:06:17;;;;;;;4.63;2.70;;;17.20;1.00;;;;;;5073133;28;20522;-79
2022/07/07 04:08:47;;;;;;;3.90;2.57;;;17.20;1.00;;;;;;5074717;28;20921;-78
2022/07/07 04:11:29;;;;;;;2.87;2.50;;;17.40;1.00;;;;;;5077311;28;20390;-79
2022/07/07 04:13:59;;;;;;;3.73;2.87;;;17.30;1.00;;;;;;5083231;28;20440;-74
2022/07/07 04:16:29;;;;;;;7.50;2.80;;;17.30;1.00;;;;;;5076839;28;20462;-74
2022/07/07 04:18:59;;;;;;;4.13;2.40;;;17.40;1.00;;;;;;5076342;28;20834;-74
2022/07/07 04:21:41;;;;;;;10.00;2.63;;;17.40;1.00;;;;;;5060270;28;20933;-74
2022/07/07 04:24:11;;;;;;;12.33;2.87;;;17.40;1.00;;;;;;5073469;28;20422;-76
2022/07/07 04:26:41;;;;;;;9.83;2.70;;;17.40;1.00;;;;;;5075736;28;20996;-77
2022/07/07 04:29:29;;;;;;;5.03;2.60;;;17.40;1.00;;;;;;5072910;28;20423;-76
2022/07/07 04:32:29;;;;;;;5.77;2.63;;;17.50;1.00;;;;;;5066718;28;20423;-76
2022/07/07 04:35:06;;;;;;;2.83;2.37;;;17.50;1.00;;;;;;5064153;28;20399;-77
2022/07/07 04:37:47;;;;;;;5.33;2.67;;;17.60;1.00;;;;;;5076634;28;20556;-76
2022/07/07 04:40:13;;;;;;;4.40;2.70;;;17.50;1.00;;;;;;5076590;28;20434;-76
2022/07/07 04:42:41;;;;;;;9.67;3.17;;;17.60;1.00;;;;;;5072934;28;20466;-76
2022/07/07 04:45:08;;;;;;;7.40;3.00;;;17.60;1.00;;;;;;5077111;28;20415;-76
2022/07/07 04:47:53;;;;;;;4.50;2.80;;;17.70;1.00;;;;;;5063076;28;20418;-77
2022/07/07 04:50:47;;;;;;;10.63;2.80;;;17.70;1.00;;;;;;5069879;28;20393;-77
2022/07/07 04:53:17;;;;;;;14.73;2.83;;;17.80;1.00;;;;;;5077084;28;20438;-76
2022/07/07 04:55:47;;;;;;;2.80;2.60;;;17.80;1.00;;;;;;5081364;28;20903;-77
2022/07/07 04:58:17;;;;;;;4.07;2.60;;;17.90;1.00;;;;;;5096492;28;20760;-76
2022/07/07 05:00:47;;;;;;;4.70;2.40;;;17.90;1.00;;;;;;5069272;28;20824;-76
2022/07/07 05:03:23;;;;;;;5.03;2.60;;;18.00;1.00;;;;;;5068824;28;20415;-76
2022/07/07 05:05:59;;;;;;;4.20;2.10;;;18.10;1.00;;;;;;5063793;28;20781;-76
2022/07/07 05:08:35;;;;;;;4.30;2.70;;;18.10;1.00;;;;;;5075128;28;20419;-76
2022/07/07 05:11:17;;;;;;;3.47;2.50;;;18.20;1.00;;;;;;5076065;28;20869;-76
2022/07/07 05:13:47;;;;;;;10.53;2.53;;;18.30;1.00;;;;;;5062362;28;20405;-76
2022/07/07 05:16:17;;;;;;;3.20;2.00;;;18.50;1.00;;;;;;5062891;28;20470;-76
2022/07/07 05:18:43;;;;;;;2.60;2.20;;;18.60;1.00;;;;;;5063257;28;20415;-77
2022/07/07 05:21:29;;;;;;;6.60;2.43;;;18.70;1.00;;;;;;5073342;28;20417;-76
2022/07/07 05:24:17;;;;;;;10.83;2.30;;;18.80;1.00;;;;;;5065662;28;20222;-76
2022/07/07 05:26:47;;;;;;;5.13;2.57;;;18.90;1.00;;;;;;5075341;28;20839;-76
2022/07/07 05:29:17;;;;;;;4.47;2.67;;;18.90;1.00;;;;;;5065647;28;20432;-77
2022/07/07 05:31:47;;;;;;;9.90;3.03;;;18.90;1.00;;;;;;5063944;28;20422;-76
2022/07/07 05:34:17;;;;;;;3.97;2.37;;;18.90;1.00;;;;;;5066392;28;20421;-76
2022/07/07 05:36:59;;;;;;;4.37;2.33;;;18.90;1.00;;;;;;5094820;28;20465;-76
2022/07/07 05:39:30;;;;;;;2.60;2.40;;;18.80;1.00;;;;;;5086733;28;20896;-77
2022/07/07 05:41:59;;;;;;;7.57;3.13;;;18.80;1.00;;;;;;5063455;28;20417;-78
2022/07/07 05:44:29;;;;;;;5.60;2.80;;;18.80;1.00;;;;;;5068813;28;20445;-77
2022/07/07 05:47:29;;;;;;;3.87;2.53;;;18.90;1.00;;;;;;5068216;28;20773;-77
2022/07/07 05:49:59;;;;;;;10.53;2.37;;;18.80;1.00;;;;;;5064340;28;20472;-77
2022/07/07 05:52:29;;;;;;;3.93;2.33;;;18.80;1.00;;;;;;5072242;28;20481;-76
2022/07/07 05:55:17;;;;;;;5.40;2.50;;;18.70;1.00;;;;;;5062798;28;21014;-76
2022/07/07 05:57:47;;;;;;;3.87;2.43;;;18.60;1.00;;;;;;5064047;28;20784;-76
2022/07/07 06:00:17;;;;;;;6.67;2.63;;;18.60;1.00;;;;;;5075506;28;20421;-76
2022/07/07 06:02:47;;;;;;;13.23;2.40;;;18.60;1.00;;;;;;5065213;28;20409;-76
2022/07/07 06:05:13;;;;;;;3.13;2.23;;;18.50;1.00;;;;;;5068442;28;20420;-76
2022/07/07 06:07:47;;;;;;;4.10;2.10;;;18.60;1.00;;;;;;5064851;28;20503;-76
2022/07/07 06:13:41;;;;;;;6.03;2.40;;;18.50;1.00;;;;;;5095369;28;20414;-87
2022/07/07 06:16:41;;;;;;;5.80;2.67;;;18.60;1.00;;;;;;5094030;28;20981;-79
2022/07/07 06:19:29;;;;;;;4.90;2.20;;;18.50;1.00;;;;;;5065248;28;20506;-79
2022/07/07 06:21:59;;;;;;;3.27;2.23;;;18.50;1.00;;;;;;5071344;28;20426;-79
2022/07/07 06:24:29;;;;;;;4.33;2.60;;;18.50;1.00;;;;;;5067685;28;20396;-79
2022/07/07 06:26:59;;;;;;;3.00;2.40;;;18.50;1.00;;;;;;5062759;28;20416;-81
2022/07/07 06:29:29;;;;;;;5.80;2.30;;;18.60;1.00;;;;;;5071734;28;20424;-79
2022/07/07 06:32:11;;;;;;;4.63;2.40;;;18.60;1.00;;;;;;5058044;28;20412;-87
2022/07/07 06:34:59;;;;;;;7.20;2.30;;;18.60;1.00;;;;;;5071008;28;20500;-87
2022/07/07 06:37:59;;;;;;;6.80;2.50;;;18.70;1.00;;;;;;5053527;28;20551;-91
2022/07/07 06:40:29;;;;;;;4.90;2.30;;;18.80;1.00;;;;;;5065748;28;20430;-89
2022/07/07 06:42:55;;;;;;;7.17;2.60;;;18.90;1.00;;;;;;5090437;28;20895;-89
2022/07/07 06:45:59;;;;;;;2.47;2.27;;;19.00;1.00;;;;;;5080936;28;20425;-89
2022/07/07 06:48:25;;;;;;;4.13;2.43;;;19.20;1.00;;;;;;5053946;28;20533;-89
2022/07/07 06:50:59;;;;;;;5.17;2.10;;;19.30;1.00;;;;;;5070592;28;20496;-89
2022/07/07 07:00:10;;;;;;;7.00;2.33;;;19.60;1.00;;;;;;5055150;28;20927;-77
2022/07/07 07:02:41;;;;;;;3.63;2.73;;;19.50;1.00;;;;;;5087065;28;20451;-76
2022/07/07 07:05:07;;;;;;;6.30;2.40;;;19.70;1.00;;;;;;5071831;28;20433;-75
2022/07/07 07:07:33;;;;;;;10.23;2.60;;;19.80;1.00;;;;;;5055636;28;20418;-72
2022/07/07 07:09:58;;;;;;;15.70;2.50;;;20.00;1.00;;;;;;5073579;28;20590;-72
2022/07/07 07:12:24;;;;;;;5.93;2.50;;;20.10;1.00;;;;;;5078385;28;20167;-72
2022/07/07 07:14:53;;;;;;;19.03;2.47;;;20.30;1.00;;;;;;5063467;28;20270;-71
2022/07/07 07:17:19;;;;;;;5.20;2.10;;;20.40;1.00;;;;;;5073216;28;20251;-72
2022/07/07 07:19:44;;;;;;;8.50;2.27;;;20.50;1.00;;;;;;5065991;28;20446;-72
2022/07/07 07:22:10;;;;;;;5.10;2.20;;;20.60;1.00;;;;;;5078740;28;20169;-72
2022/07/07 07:24:36;;;;;;;6.10;2.10;;;21.00;1.00;;;;;;5083727;28;20163;-72
2022/07/07 07:27:01;;;;;;;4.57;2.27;;;21.20;1.00;;;;;;5073042;28;20212;-72
2022/07/07 07:29:27;;;;;;;4.30;1.93;;;21.70;1.00;;;;;;5069679;28;20183;-72
2022/07/07 07:31:53;;;;;;;11.13;2.50;;;21.90;1.00;;;;;;5071069;28;20507;-71
2022/07/07 07:34:18;;;;;;;2.80;2.17;;;21.90;1.00;;;;;;5062022;28;20685;-71
2022/07/07 07:36:44;;;;;;;5.00;2.00;;;21.80;1.00;;;;;;5073070;28;20204;-71
2022/07/07 07:39:11;;;;;;;10.80;2.53;;;21.70;1.00;;;;;;5073129;28;20195;-70
2022/07/07 07:41:38;;;;;;;5.67;2.00;;;21.60;1.00;;;;;;5064262;28;20171;-74
2022/07/07 07:44:04;;;;;;;7.63;2.03;;;21.30;1.00;;;;;;5071957;28;20517;-71
2022/07/07 07:46:30;;;;;;;7.83;2.17;;;21.30;1.00;;;;;;5073694;28;20522;-72
2022/07/07 07:48:55;;;;;;;3.43;2.07;;;21.10;1.00;;;;;;5072838;28;20424;-71
2022/07/07 07:51:21;;;;;;;7.80;2.10;;;21.10;1.00;;;;;;5073007;28;20220;-71
2022/07/07 07:53:47;;;;;;;5.97;2.00;;;21.00;1.00;;;;;;5073214;28;20240;-71
2022/07/07 07:56:12;;;;;;;4.30;2.40;;;21.00;1.00;;;;;;5072779;28;20210;-71
2022/07/07 07:58:38;;;;;;;4.37;2.60;;;20.80;1.00;;;;;;5073058;28;20552;-70
2022/07/07 08:01:04;;;;;;;3.73;2.10;;;20.90;1.00;;;;;;5082133;28;20173;-75
2022/07/07 08:03:30;;;;;;;4.10;1.97;;;21.20;1.00;;;;;;5074765;28;20503;-75
2022/07/07 08:06:05;;;;;;;3.37;2.03;;;21.50;1.00;;;;;;5057131;28;20177;-75
2022/07/07 08:08:31;;;;;;;4.63;2.17;;;21.90;1.00;;;;;;5060660;28;20171;-75
2022/07/07 08:10:56;;;;;;;4.43;2.40;;;22.00;1.00;;;;;;5080179;28;20899;-75
2022/07/07 08:13:22;;;;;;;13.00;2.67;;;21.90;1.00;;;;;;5063776;28;20309;-75
2022/07/07 08:15:48;;;;;;;3.27;2.07;;;21.90;1.00;;;;;;5083355;28;20266;-74
2022/07/07 08:18:17;;;;;;;2.27;2.17;;;22.00;1.00;;;;;;5075883;28;20175;-76
2022/07/07 08:20:53;;;;;;;6.23;2.27;;;22.10;1.00;;;;;;5073207;28;20304;-75
2022/07/07 08:23:19;;;;;;;4.57;2.30;;;22.40;1.00;;;;;;5061197;28;20421;-76
2022/07/07 08:25:53;;;;;;;4.07;2.00;;;22.80;1.00;;;;;;5071025;28;20516;-76
2022/07/07 08:28:19;;;;;;;2.83;2.20;;;23.10;1.00;;;;;;5071928;28;20221;-75
2022/07/07 08:30:45;;;;;;;5.13;2.10;;;23.60;1.00;;;;;;5073212;28;20490;-72
2022/07/07 08:33:11;;;;;;;1.93;1.83;;;24.00;1.00;;;;;;5077626;28;20610;-73
2022/07/07 08:35:36;;;;;;;4.00;2.57;;;23.70;1.00;;;;;;5072213;28;20246;-73
2022/07/07 08:38:03;;;;;;;3.43;2.17;;;23.60;1.00;;;;;;5076054;28;21076;-71
2022/07/07 08:40:28;;;;;;;2.70;2.00;;;23.50;1.00;;;;;;5076139;28;20213;-71
2022/07/07 08:42:54;;;;;;;5.57;2.20;;;23.50;1.00;;;;;;5076140;28;20451;-72
2022/07/07 08:45:20;;;;;;;3.60;2.37;;;23.50;1.00;;;;;;5068124;28;20174;-73
2022/07/07 08:47:46;;;;;;;3.43;2.20;;;23.20;1.00;;;;;;5076473;28;20271;-72
2022/07/07 08:50:11;;;;;;;3.73;2.20;;;22.80;1.00;;;;;;5084754;28;20556;-72
2022/07/07 08:52:38;;;;;;;3.37;2.03;;;22.70;1.00;;;;;;5076269;28;20180;-72
2022/07/07 08:55:06;;;;;;;2.10;1.90;;;22.40;1.00;;;;;;5069744;28;20187;-71
2022/07/07 08:57:32;;;;;;;4.03;2.13;;;22.20;1.00;;;;;;5069661;28;20470;-71
2022/07/07 08:59:58;;;;;;;7.70;2.20;;;22.30;1.00;;;;;;5075852;28;20472;-73
2022/07/07 09:02:24;;;;;;;3.67;2.20;;;22.20;1.00;;;;;;5076106;28;20197;-75
2022/07/07 09:05:05;;;;;;;5.37;2.20;;;22.20;1.00;;;;;;5069538;28;20634;-78
2022/07/07 09:07:51;;;;;;;5.73;1.80;;;22.10;1.00;;;;;;5082561;28;20763;-76
2022/07/07 09:10:37;;;;;;;3.50;2.50;;;22.00;1.00;;;;;;5085219;28;20413;-76
2022/07/07 09:13:21;;;;;;;7.00;2.60;;;22.00;1.00;;;;;;5075775;28;20475;-78
2022/07/07 09:15:49;;;;;;;5.40;2.00;;;21.90;1.00;;;;;;5072894;28;20452;-77
2022/07/07 09:18:37;;;;;;;3.63;2.23;;;21.80;1.00;;;;;;5059879;28;20405;-74
2022/07/07 09:21:24;;;;;;;4.33;2.20;;;21.70;1.00;;;;;;5063844;28;20932;-76
2022/07/07 09:23:55;;;;;;;4.97;2.40;;;21.80;1.00;;;;;;5081062;28;20412;-75
2022/07/07 09:26:43;;;;;;;4.23;2.00;;;21.80;1.00;;;;;;5058985;28;20414;-76
2022/07/07 09:29:13;;;;;;;6.00;2.17;;;21.90;1.00;;;;;;5055730;28;21079;-77
2022/07/07 09:32:00;;;;;;;2.90;2.30;;;21.90;1.00;;;;;;5088859;28;20775;-78
2022/07/07 09:38:13;;;;;;;3.20;2.60;;;21.80;1.00;;;;;;5075677;28;20416;-82
2022/07/07 09:41:18;;;;;;;5.70;2.83;;;21.20;1.00;;;;;;5062076;28;20430;-84
2022/07/07 09:43:49;;;;;;;5.50;3.23;;;21.20;1.00;;;;;;5082345;28;20448;-84
2022/07/07 09:50:11;;;;;;;2.50;2.17;;;21.60;1.00;;;;;;5076000;28;20417;-88
2022/07/07 09:52:47;;;;;;;2.40;2.20;;;22.00;1.00;;;;;;5037477;28;20845;-84
2022/07/07 09:55:17;;;;;;;3.47;1.90;;;22.20;1.00;;;;;;5037063;28;20416;-84
2022/07/07 09:57:47;;;;;;;4.00;2.03;;;22.30;1.00;;;;;;5060512;28;20521;-86
2022/07/07 10:03:35;;;;;;;3.10;1.70;;;22.40;1.00;;;;;;5049067;28;20419;-74
2022/07/07 10:06:06;;;;;;;2.20;2.00;;;22.50;1.00;;;;;;5052766;28;20420;-75
2022/07/07 10:08:42;;;;;;;1.80;1.70;;;22.70;1.00;;;;;;5053695;28;20458;-74
2022/07/07 10:11:18;;;;;;;2.10;2.00;;;22.60;1.00;;;;;;5051636;28;20429;-74
2022/07/07 10:13:49;;;;;;;2.27;2.07;;;22.60;1.00;;;;;;5051905;28;20517;-75
2022/07/07 10:16:15;;;;;;;3.00;2.23;;;22.70;1.00;;;;;;5052736;28;21119;-75
2022/07/07 10:18:54;;;;;;;2.97;2.20;;;22.80;1.00;;;;;;5058689;28;20412;-75
2022/07/07 10:21:36;;;;;;;2.50;2.30;;;22.90;1.00;;;;;;5035763;28;20838;-74
2022/07/07 10:24:06;;;;;;;2.10;2.00;;;23.00;1.00;;;;;;5051982;28;20411;-75
2022/07/07 10:26:40;;;;;;;2.37;2.27;;;23.00;1.00;;;;;;5052161;28;20419;-74
2022/07/07 10:29:10;;;;;;;4.77;1.77;;;23.10;1.00;;;;;;5062380;28;20489;-75
2022/07/07 10:31:41;;;;;;;1.90;1.80;;;23.00;1.00;;;;;;5073973;28;20783;-75
2022/07/07 10:34:11;;;;;;;2.90;1.60;;;23.00;1.00;;;;;;5067404;28;20534;-75
2022/07/07 10:37:07;;;;;;;1.30;1.30;;;23.00;1.00;;;;;;5076341;28;20501;-74
2022/07/07 10:39:40;;;;;;;3.03;1.83;;;23.10;1.00;;;;;;5078999;28;20423;-74
2022/07/07 10:42:43;;;;;;;1.90;1.80;;;23.40;1.00;;;;;;5087876;28;20453;-74
2022/07/07 10:45:10;;;;;;;1.30;1.30;;;23.50;1.00;;;;;;5050810;28;20462;-74
2022/07/07 10:47:59;;;;;;;2.33;1.50;;;23.40;1.00;;;;;;5051823;28;20436;-79
2022/07/07 10:51:19;;;;;;;1.50;1.50;;;23.40;1.00;;;;;;5052189;28;20563;-79
2022/07/07 10:54:06;;;;;;;1.80;1.70;;;23.40;1.00;;;;;;5012291;28;20426;-79
2022/07/07 11:00:41;;;;;;;5.93;1.80;;;23.30;1.00;;;;;;5011968;28;20435;-78
2022/07/07 11:03:13;;;;;;;1.70;1.60;;;23.10;1.00;;;;;;5012441;28;20484;-79
2022/07/07 11:05:45;;;;;;;1.80;1.20;;;23.10;1.00;;;;;;5012156;28;20408;-79
2022/07/07 11:08:38;;;;;;;1.20;1.10;;;22.90;1.00;;;;;;5011987;28;20465;-78
2022/07/07 11:11:41;;;;;;;6.53;1.07;;;22.90;1.00;;;;;;5011947;28;20418;-78
2022/07/07 11:14:29;;;;;;;0.93;0.90;;;23.20;1.00;;;;;;5011536;28;20522;-78
2022/07/07 11:16:57;;;;;;;3.03;1.10;;;23.60;1.00;;;;;;5011867;28;20582;-78
2022/07/07 11:19:34;;;;;;;1.73;1.00;;;23.90;1.00;;;;;;5012047;28;20970;-78
2022/07/07 11:22:41;;;;;;;2.60;1.23;;;23.90;1.00;;;;;;5011701;28;20469;-78
2022/07/07 11:25:29;;;;;;;2.07;1.40;;;24.30;1.00;;;;;;5023940;28;20414;-79
2022/07/07 11:28:00;;;;;;;1.10;1.10;;;24.60;1.00;;;;;;5052287;28;20428;-78
2022/07/07 11:31:00;;;;;;;1.63;1.20;;;24.30;1.00;;;;;;5060814;28;20403;-77
2022/07/07 11:33:26;;;;;;;2.30;1.03;;;24.30;1.00;;;;;;5079821;28;20493;-74
2022/07/07 11:35:52;;;;;;;0.93;0.93;;;24.10;1.00;;;;;;5085653;28;20446;-75
2022/07/07 11:38:17;;;;;;;4.40;1.00;;;23.90;1.00;;;;;;5068682;28;20416;-74
2022/07/07 11:40:43;;;;;;;0.90;0.90;;;23.80;1.00;;;;;;5084308;28;20231;-74
2022/07/07 11:43:29;;;;;;;1.03;1.03;;;24.00;1.00;;;;;;5076416;28;20176;-74
2022/07/07 11:45:55;;;;;;;1.17;1.10;;;24.20;1.00;;;;;;5079116;28;20175;-75
2022/07/07 11:48:23;;;;;;;1.20;1.10;;;24.70;1.00;;;;;;5087457;28;20619;-75
2022/07/07 11:51:00;;;;;;;1.43;1.20;;;24.90;1.00;;;;;;5074278;28;20194;-75
2022/07/07 11:53:26;;;;;;;1.27;1.17;;;25.10;1.00;;;;;;5080020;28;20408;-74
2022/07/07 11:55:51;;;;;;;1.40;1.30;;;24.80;1.00;;;;;;5077023;28;20954;-74
2022/07/07 11:58:17;;;;;;;1.33;1.23;;;24.80;1.00;;;;;;5075002;28;20223;-74
2022/07/07 12:00:42;;;;;;;3.50;1.33;;;24.50;1.00;;;;;;5072412;28;20254;-74
2022/07/07 12:03:08;;;;;;;1.93;1.40;;;24.20;1.00;;;;;;5072887;28;20186;-78
2022/07/07 12:05:43;;;;;;;2.10;1.40;;;23.60;1.00;;;;;;5065034;28;20187;-78
2022/07/07 12:08:14;;;;;;;2.80;1.17;;;23.30;1.00;;;;;;5072412;28;20319;-78
2022/07/07 12:10:57;;;;;;;3.23;1.30;;;23.20;1.00;;;;;;5076051;28;20773;-79
2022/07/07 12:13:26;;;;;;;1.77;1.20;;;22.90;1.00;;;;;;5062952;28;20527;-78
2022/07/07 12:15:53;;;;;;;1.00;1.00;;;22.60;1.00;;;;;;5076020;28;20458;-78
2022/07/07 12:18:32;;;;;;;1.63;1.17;;;22.60;1.00;;;;;;5076161;28;20411;-78
2022/07/07 12:21:10;;;;;;;0.80;0.80;;;22.60;1.00;;;;;;5075931;28;20413;-78
2022/07/07 12:23:44;;;;;;;1.00;0.97;;;22.50;1.00;;;;;;5076051;28;20405;-78
2022/07/07 12:26:13;;;;;;;5.23;0.70;;;22.60;1.00;;;;;;5075921;28;20419;-78
2022/07/07 12:28:40;;;;;;;0.90;0.90;;;22.70;1.00;;;;;;5076053;28;20921;-78
2022/07/07 12:31:06;;;;;;;4.57;0.90;;;22.70;1.00;;;;;;5075724;28;20417;-78
2022/07/07 12:33:37;;;;;;;0.80;0.80;;;22.60;1.00;;;;;;5076287;28;20414;-78
2022/07/07 12:36:23;;;;;;;0.90;0.90;;;22.50;1.00;;;;;;5075775;28;20441;-78
2022/07/07 12:38:54;;;;;;;1.23;1.13;;;22.60;1.00;;;;;;5075877;28;20443;-77
2022/07/07 12:41:22;;;;;;;1.67;1.50;;;22.70;1.00;;;;;;5084957;28;20489;-78
2022/07/07 12:43:47;;;;;;;1.23;1.20;;;22.70;1.00;;;;;;5061834;28;20404;-79
2022/07/07 12:46:13;;;;;;;1.43;1.33;;;22.40;1.00;;;;;;5075591;28;20774;-78
2022/07/07 12:48:47;;;;;;;1.50;1.40;;;22.80;1.00;;;;;;5071473;28;20486;-78
2022/07/07 12:51:14;;;;;;;1.50;1.30;;;22.80;1.00;;;;;;5072632;28;20183;-78
2022/07/07 12:53:40;;;;;;;2.23;1.50;;;23.00;1.00;;;;;;5075238;28;20458;-78
2022/07/07 12:56:12;;;;;;;1.87;1.70;;;23.20;1.00;;;;;;5083529;28;20466;-78
2022/07/07 12:58:46;;;;;;;1.97;1.87;;;23.20;1.00;;;;;;5075423;28;20511;-78
2022/07/07 13:01:16;;;;;;;3.67;1.97;;;23.00;1.00;;;;;;5075281;28;20469;-78
2022/07/07 13:03:43;;;;;;;2.83;1.40;;;23.10;1.00;;;;;;5075620;28;20493;-78
2022/07/07 13:06:09;;;;;;;3.80;1.57;;;23.30;1.00;;;;;;5075322;28;20410;-78
2022/07/07 13:08:35;;;;;;;1.60;1.50;;;23.30;1.00;;;;;;5075221;28;20410;-78
2022/07/07 13:11:06;;;;;;;2.70;1.40;;;23.30;1.00;;;;;;5075133;28;20177;-78
2022/07/07 13:13:32;;;;;;;1.90;1.30;;;23.10;1.00;;;;;;5078962;28;20187;-79
2022/07/07 13:15:58;;;;;;;2.10;1.40;;;23.00;1.00;;;;;;5073300;28;20451;-78
2022/07/07 13:18:26;;;;;;;5.33;1.47;;;23.10;1.00;;;;;;5076048;28;20456;-78
2022/07/07 13:21:01;;;;;;;1.47;1.37;;;23.00;1.00;;;;;;5080465;28;20256;-76
2022/07/07 13:23:31;;;;;;;1.50;1.40;;;23.20;1.00;;;;;;5073943;28;20471;-77
2022/07/07 13:26:02;;;;;;;1.50;1.40;;;23.50;1.00;;;;;;5070573;28;20431;-76
2022/07/07 13:28:53;;;;;;;9.10;2.00;;;23.60;1.00;;;;;;5074282;28;20412;-76
2022/07/07 13:31:23;;;;;;;1.80;1.70;;;23.60;1.00;;;;;;5074750;28;20427;-77
2022/07/07 13:34:29;;;;;;;2.20;1.50;;;23.90;1.00;;;;;;5058120;28;20419;-77
2022/07/07 13:37:11;;;;;;;1.50;1.40;;;23.90;1.00;;;;;;5075694;28;20450;-76
2022/07/07 13:39:47;;;;;;;1.67;1.30;;;24.20;1.00;;;;;;5074951;28;20424;-76
2022/07/07 13:42:17;;;;;;;4.33;1.50;;;24.30;1.00;;;;;;5071694;28;20416;-77
2022/07/07 13:45:23;;;;;;;1.90;1.27;;;24.30;1.00;;;;;;5076302;28;20887;-77
2022/07/07 13:51:17;;;;;;;1.67;1.30;;;24.60;1.00;;;;;;5081225;28;20399;-77
2022/07/07 13:53:44;;;;;;;1.83;1.10;;;24.80;1.00;;;;;;5065668;28;20463;-76
2022/07/07 13:56:09;;;;;;;2.13;1.10;;;25.20;1.00;;;;;;5091527;28;20456;-77
2022/07/07 14:05:30;;;;;;;1.40;1.07;;;25.60;1.00;;;;;;5061609;28;20550;-78
2022/07/07 14:07:59;;;;;;;1.00;0.90;;;25.10;1.00;;;;;;5077431;28;20462;-75
2022/07/07 14:10:35;;;;;;;1.10;1.00;;;24.80;1.00;;;;;;5085344;28;20411;-76
2022/07/07 14:13:01;;;;;;;5.23;1.00;;;24.40;1.00;;;;;;5074218;28;20515;-75
2022/07/07 14:15:29;;;;;;;2.53;1.23;;;24.50;1.00;;;;;;5074671;28;20440;-76
2022/07/07 14:17:55;;;;;;;1.63;0.70;;;24.30;1.00;;;;;;5074343;28;20193;-75
2022/07/07 14:20:24;;;;;;;1.53;0.90;;;24.20;1.00;;;;;;5082500;28;20407;-75